Time;durP1;ratioP1;P1;durP2;ratioP2;P2;SDS_P1;SDS_P2;PMS_P1;PMS_P2;Temp;Humidity;BMP_temperature;BMP_pressure;BME280_temperature;BME280_humidity;BME280_pressure;Samples;Min_cycle;Max_cycle;Signal;HPM_P1;HPM_P2
2023/06/02 00:02:12;;;;;;;10.30;6.93;;;;;;;;;;4971045;28;20475;-83
2023/06/02 00:04:40;;;;;;;9.10;7.30;;;;;;;;;;4957366;29;20555;-82
2023/06/02 00:07:08;;;;;;;7.03;6.37;;;;;;;;;;4956103;29;20932;-82
2023/06/02 00:09:40;;;;;;;7.20;6.07;;;;;;;;;;4953049;28;20738;-85
2023/06/02 00:12:08;;;;;;;13.53;7.63;;;;;;;;;;4963681;28;20460;-83
2023/06/02 00:14:37;;;;;;;9.30;6.60;;;;;;;;;;4980492;28;20458;-86
2023/06/02 00:17:05;;;;;;;7.53;6.33;;;;;;;;;;4966133;28;20469;-84
2023/06/02 00:19:33;;;;;;;12.60;7.10;;;;;;;;;;4963996;28;20518;-85
2023/06/02 00:22:02;;;;;;;7.50;6.80;;;;;;;;;;4961644;28;20465;-86
2023/06/02 00:24:29;;;;;;;12.03;7.63;;;;;;;;;;4958669;29;20455;-83
2023/06/02 00:26:57;;;;;;;17.73;7.30;;;;;;;;;;4972253;28;20793;-84
2023/06/02 00:29:25;;;;;;;11.00;7.00;;;;;;;;;;4961320;28;20445;-84
2023/06/02 00:31:52;;;;;;;18.80;8.07;;;;;;;;;;4955790;29;20828;-85
2023/06/02 00:34:20;;;;;;;11.47;7.03;;;;;;;;;;4952268;28;20512;-85
2023/06/02 00:36:47;;;;;;;8.43;6.60;;;;;;;;;;4959243;29;20419;-84
2023/06/02 00:39:15;;;;;;;9.53;6.83;;;;;;;;;;4962721;28;20509;-83
2023/06/02 00:41:43;;;;;;;9.70;6.87;;;;;;;;;;4953393;29;20777;-83
2023/06/02 00:44:10;;;;;;;7.50;6.40;;;;;;;;;;4969139;28;20463;-82
2023/06/02 00:46:38;;;;;;;11.35;6.95;;;;;;;;;;4955964;28;20241;-82
2023/06/02 00:49:06;;;;;;;7.68;6.88;;;;;;;;;;4963343;28;20452;-82
2023/06/02 00:51:33;;;;;;;9.65;7.07;;;;;;;;;;4966427;28;20289;-82
2023/06/02 00:54:02;;;;;;;8.95;7.45;;;;;;;;;;4959071;29;20207;-82
2023/06/02 00:56:29;;;;;;;13.68;8.00;;;;;;;;;;4954268;28;20270;-82
2023/06/02 00:58:57;;;;;;;14.40;7.68;;;;;;;;;;4964057;28;20276;-82
2023/06/02 01:01:25;;;;;;;8.68;7.40;;;;;;;;;;4953483;29;20750;-85
2023/06/02 01:03:53;;;;;;;9.35;6.88;;;;;;;;;;4946775;29;20212;-80
2023/06/02 01:06:25;;;;;;;9.13;7.47;;;;;;;;;;4949460;29;20214;-81
2023/06/02 01:11:28;;;;;;;9.50;7.60;;;;;;;;;;5084108;23;20229;-83
2023/06/02 01:13:55;;;;;;;10.75;8.05;;;;;;;;;;4948872;29;20407;-81
2023/06/02 01:16:26;;;;;;;10.55;8.30;;;;;;;;;;4962243;28;20212;-82
2023/06/02 01:18:54;;;;;;;9.70;8.35;;;;;;;;;;4953704;29;20211;-84
2023/06/02 01:21:23;;;;;;;13.10;7.45;;;;;;;;;;4960761;28;20249;-82
2023/06/02 01:23:52;;;;;;;9.20;8.05;;;;;;;;;;4976451;28;20214;-83
2023/06/02 01:26:19;;;;;;;14.65;7.72;;;;;;;;;;4968007;28;20262;-83
2023/06/02 01:28:47;;;;;;;10.88;8.50;;;;;;;;;;4962838;29;20280;-82
2023/06/02 01:31:26;;;;;;;9.10;7.07;;;;;;;;;;4963682;29;20215;-81
2023/06/02 01:33:56;;;;;;;11.93;8.40;;;;;;;;;;4967533;28;20412;-82
2023/06/02 01:36:24;;;;;;;11.98;9.00;;;;;;;;;;4972347;28;20387;-81
2023/06/02 01:38:53;;;;;;;11.55;8.25;;;;;;;;;;4956361;29;20328;-82
2023/06/02 01:41:21;;;;;;;17.23;8.60;;;;;;;;;;4950181;28;20215;-81
2023/06/02 01:43:49;;;;;;;9.05;8.15;;;;;;;;;;4952506;28;20641;-80
2023/06/02 01:46:17;;;;;;;8.98;7.68;;;;;;;;;;4954082;29;20218;-82
2023/06/02 01:48:44;;;;;;;14.93;9.27;;;;;;;;;;4957454;29;20204;-82
2023/06/02 01:51:12;;;;;;;10.60;8.80;;;;;;;;;;4952009;29;20234;-81
2023/06/02 01:53:39;;;;;;;13.88;10.00;;;;;;;;;;4984166;28;20282;-81
2023/06/02 01:56:07;;;;;;;15.75;8.50;;;;;;;;;;4964492;28;20278;-83
2023/06/02 01:58:34;;;;;;;10.30;8.30;;;;;;;;;;4954880;28;20249;-84
2023/06/02 02:01:02;;;;;;;11.32;8.48;;;;;;;;;;4969276;28;20274;-83
2023/06/02 02:03:30;;;;;;;13.80;9.27;;;;;;;;;;4951226;28;20314;-82
2023/06/02 02:05:59;;;;;;;11.38;8.60;;;;;;;;;;4965998;28;20206;-82
2023/06/02 02:08:27;;;;;;;17.58;10.45;;;;;;;;;;4958789;28;20234;-83
2023/06/02 02:10:55;;;;;;;14.38;10.15;;;;;;;;;;4965466;28;20242;-82
2023/06/02 02:13:22;;;;;;;20.48;10.43;;;;;;;;;;4953215;29;20282;-83
2023/06/02 02:15:50;;;;;;;12.75;9.25;;;;;;;;;;4959003;29;20415;-81
2023/06/02 02:18:20;;;;;;;11.25;7.97;;;;;;;;;;4961964;28;20214;-83
2023/06/02 02:20:48;;;;;;;9.88;8.90;;;;;;;;;;4960170;28;20218;-83
2023/06/02 02:23:15;;;;;;;15.05;10.50;;;;;;;;;;4954246;29;20211;-83
2023/06/02 02:25:43;;;;;;;12.75;8.02;;;;;;;;;;4954353;28;20207;-83
2023/06/02 02:28:10;;;;;;;11.98;9.65;;;;;;;;;;4963260;28;20214;-82
2023/06/02 02:30:38;;;;;;;12.40;8.98;;;;;;;;;;4954430;29;20237;-83
2023/06/02 02:33:05;;;;;;;9.90;7.70;;;;;;;;;;4958977;29;20206;-82
2023/06/02 02:35:33;;;;;;;15.63;8.27;;;;;;;;;;4962451;29;20211;-83
2023/06/02 02:38:00;;;;;;;16.02;9.38;;;;;;;;;;4961337;29;20267;-82
2023/06/02 02:40:29;;;;;;;12.77;9.68;;;;;;;;;;4960542;29;20214;-82
2023/06/02 02:42:56;;;;;;;12.57;9.30;;;;;;;;;;4958431;29;20200;-82
2023/06/02 02:45:24;;;;;;;16.23;10.48;;;;;;;;;;4964832;28;20213;-81
2023/06/02 02:47:52;;;;;;;12.38;9.65;;;;;;;;;;4958334;28;20208;-81
2023/06/02 02:50:19;;;;;;;16.83;9.48;;;;;;;;;;4961352;29;20250;-82
2023/06/02 02:52:46;;;;;;;14.85;8.30;;;;;;;;;;4962937;28;20207;-82
2023/06/02 02:55:16;;;;;;;17.83;11.32;;;;;;;;;;4975020;28;20355;-82
2023/06/02 02:57:44;;;;;;;11.20;9.65;;;;;;;;;;4956107;28;20379;-82
2023/06/02 03:00:13;;;;;;;13.02;9.63;;;;;;;;;;4964707;28;20274;-83
2023/06/02 03:02:40;;;;;;;13.60;10.68;;;;;;;;;;4958788;29;20593;-83
2023/06/02 03:05:10;;;;;;;10.45;9.45;;;;;;;;;;4960472;28;20512;-83
2023/06/02 03:07:44;;;;;;;11.85;10.57;;;;;;;;;;4958187;29;20270;-83
2023/06/02 03:10:12;;;;;;;16.80;9.98;;;;;;;;;;4965299;29;20249;-83
2023/06/02 03:12:39;;;;;;;15.32;10.70;;;;;;;;;;4955461;28;20207;-82
2023/06/02 03:15:07;;;;;;;11.23;9.65;;;;;;;;;;4953496;29;20225;-85
2023/06/02 03:17:37;;;;;;;16.63;10.38;;;;;;;;;;4961263;28;20211;-82
2023/06/02 03:23:29;;;;;;;15.05;10.02;;;;;;;;;;4972679;28;20475;-79
2023/06/02 03:25:57;;;;;;;17.63;12.70;;;;;;;;;;4959525;29;20757;-81
2023/06/02 03:28:24;;;;;;;17.98;9.68;;;;;;;;;;4959814;29;20222;-82
2023/06/02 03:30:55;;;;;;;12.95;9.27;;;;;;;;;;4954628;29;20222;-82
2023/06/02 03:33:22;;;;;;;19.35;12.13;;;;;;;;;;4956534;29;20207;-83
2023/06/02 03:35:50;;;;;;;16.65;12.90;;;;;;;;;;4953837;29;20212;-84
2023/06/02 03:38:20;;;;;;;17.70;10.95;;;;;;;;;;4957773;29;20219;-83
2023/06/02 03:40:48;;;;;;;14.35;10.15;;;;;;;;;;4960923;28;20278;-83
2023/06/02 03:43:15;;;;;;;20.42;10.95;;;;;;;;;;4959937;29;20245;-80
2023/06/02 03:45:45;;;;;;;13.20;9.75;;;;;;;;;;4957353;28;20270;-81
2023/06/02 03:48:12;;;;;;;17.55;10.60;;;;;;;;;;4957936;29;20215;-82
2023/06/02 03:50:41;;;;;;;15.75;9.95;;;;;;;;;;4973147;28;20617;-82
2023/06/02 03:53:11;;;;;;;15.85;9.38;;;;;;;;;;4959013;28;20270;-82
2023/06/02 03:55:38;;;;;;;13.07;10.25;;;;;;;;;;4967820;28;20235;-83
2023/06/02 03:58:06;;;;;;;20.02;10.65;;;;;;;;;;4968665;28;20214;-84
2023/06/02 04:00:34;;;;;;;13.15;9.57;;;;;;;;;;4975423;28;20249;-83
2023/06/02 04:03:04;;;;;;;17.95;10.05;;;;;;;;;;4987738;28;20231;-83
2023/06/02 04:05:33;;;;;;;12.13;8.32;;;;;;;;;;4978505;28;20214;-84
2023/06/02 04:08:00;;;;;;;19.08;8.95;;;;;;;;;;4987697;28;20419;-84
2023/06/02 04:10:30;;;;;;;12.75;9.35;;;;;;;;;;4962564;28;20278;-86
2023/06/02 04:13:00;;;;;;;12.88;7.93;;;;;;;;;;4958598;28;20208;-86
2023/06/02 04:15:33;;;;;;;10.75;7.53;;;;;;;;;;4950667;29;20207;-85
2023/06/02 04:18:04;;;;;;;11.83;7.67;;;;;;;;;;4964104;28;20219;-84
2023/06/02 04:20:32;;;;;;;15.70;8.52;;;;;;;;;;4957134;29;20450;-86
2023/06/02 04:23:00;;;;;;;11.48;7.85;;;;;;;;;;4963644;29;20215;-85
2023/06/02 04:25:30;;;;;;;9.73;7.17;;;;;;;;;;4961578;29;20239;-87
2023/06/02 04:27:59;;;;;;;6.93;6.22;;;;;;;;;;4955257;29;20450;-86
2023/06/02 04:30:31;;;;;;;9.20;6.50;;;;;;;;;;4961039;28;20263;-85
2023/06/02 04:33:03;;;;;;;11.85;5.93;;;;;;;;;;4954418;28;20540;-84
2023/06/02 04:35:33;;;;;;;15.53;6.83;;;;;;;;;;4957509;28;20219;-83
2023/06/02 04:38:03;;;;;;;7.88;5.72;;;;;;;;;;4958717;29;20607;-85
2023/06/02 04:40:30;;;;;;;13.13;5.97;;;;;;;;;;4955913;28;20278;-85
2023/06/02 04:42:59;;;;;;;10.90;6.70;;;;;;;;;;4959886;28;20513;-84
2023/06/02 04:45:26;;;;;;;10.33;5.90;;;;;;;;;;4949761;28;20424;-83
2023/06/02 04:47:53;;;;;;;12.03;7.30;;;;;;;;;;4959993;28;20556;-85
2023/06/02 04:50:21;;;;;;;12.43;7.40;;;;;;;;;;4962595;28;20442;-82
2023/06/02 04:52:48;;;;;;;7.33;6.63;;;;;;;;;;4969535;28;20502;-83
2023/06/02 04:55:16;;;;;;;8.03;5.73;;;;;;;;;;4952789;28;20442;-85
2023/06/02 04:57:43;;;;;;;8.40;6.67;;;;;;;;;;4969976;28;20457;-81
2023/06/02 05:00:11;;;;;;;6.97;5.37;;;;;;;;;;4960216;28;20450;-86
2023/06/02 05:02:38;;;;;;;16.57;7.50;;;;;;;;;;4977839;28;20461;-80
2023/06/02 05:05:06;;;;;;;8.50;6.47;;;;;;;;;;4970653;28;20452;-85
2023/06/02 05:07:36;;;;;;;9.60;6.20;;;;;;;;;;4968481;28;20663;-81
2023/06/02 05:10:03;;;;;;;14.00;7.10;;;;;;;;;;4964483;28;20532;-82
2023/06/02 05:12:31;;;;;;;11.20;6.67;;;;;;;;;;4959367;28;20520;-85
2023/06/02 05:14:59;;;;;;;10.23;5.93;;;;;;;;;;4948897;29;20456;-81
2023/06/02 05:17:30;;;;;;;14.40;7.43;;;;;;;;;;4945175;29;20458;-83
2023/06/02 05:19:58;;;;;;;10.40;6.00;;;;;;;;;;4955033;29;20418;-84
2023/06/02 05:22:27;;;;;;;8.07;6.10;;;;;;;;;;4954703;29;20824;-79
2023/06/02 05:24:54;;;;;;;10.93;6.47;;;;;;;;;;4972460;28;20547;-80
2023/06/02 05:27:22;;;;;;;17.40;8.00;;;;;;;;;;4964945;28;20450;-79
2023/06/02 05:29:49;;;;;;;9.70;6.00;;;;;;;;;;4952954;29;20521;-82
2023/06/02 05:32:20;;;;;;;10.00;6.00;;;;;;;;;;4947949;29;20486;-81
2023/06/02 05:34:47;;;;;;;17.47;5.83;;;;;;;;;;4945126;29;20493;-81
2023/06/02 05:37:15;;;;;;;12.50;6.00;;;;;;;;;;4952794;29;20520;-81
2023/06/02 05:39:43;;;;;;;9.97;4.80;;;;;;;;;;4948806;29;20510;-78
2023/06/02 05:42:10;;;;;;;10.53;4.40;;;;;;;;;;4945577;28;20872;-82
2023/06/02 05:44:43;;;;;;;8.53;3.87;;;;;;;;;;4953836;28;20538;-87
2023/06/02 05:47:13;;;;;;;8.33;4.13;;;;;;;;;;4947033;29;20450;-79
2023/06/02 05:49:41;;;;;;;7.07;5.13;;;;;;;;;;4951033;29;20508;-82
2023/06/02 05:52:08;;;;;;;8.97;4.23;;;;;;;;;;4944934;29;20545;-80
2023/06/02 05:54:35;;;;;;;8.73;3.53;;;;;;;;;;4950321;28;20472;-82
2023/06/02 05:57:03;;;;;;;7.27;4.80;;;;;;;;;;4962092;29;20487;-87
2023/06/02 05:59:33;;;;;;;9.30;4.20;;;;;;;;;;4956033;29;20641;-86
2023/06/02 06:02:01;;;;;;;4.70;4.17;;;;;;;;;;4971029;28;20804;-82
2023/06/02 06:04:28;;;;;;;6.90;4.30;;;;;;;;;;4946710;28;20628;-83
2023/06/02 06:07:05;;;;;;;5.27;3.70;;;;;;;;;;4957558;28;20433;-86
2023/06/02 06:09:35;;;;;;;7.00;3.57;;;;;;;;;;4956038;29;20852;-86
2023/06/02 06:12:13;;;;;;;5.97;2.80;;;;;;;;;;4955288;29;20538;-86
2023/06/02 06:14:46;;;;;;;6.37;3.50;;;;;;;;;;4964781;28;20488;-82
2023/06/02 06:17:14;;;;;;;3.47;2.53;;;;;;;;;;4974370;28;20628;-86
2023/06/02 06:19:41;;;;;;;7.63;3.70;;;;;;;;;;4952707;29;20449;-82
2023/06/02 06:22:08;;;;;;;6.60;3.00;;;;;;;;;;4951828;28;20454;-81
2023/06/02 06:24:36;;;;;;;4.87;2.93;;;;;;;;;;4963670;28;20423;-81
2023/06/02 06:27:07;;;;;;;4.63;2.33;;;;;;;;;;4982537;28;20686;-86
2023/06/02 06:29:37;;;;;;;5.07;3.23;;;;;;;;;;4956804;29;20468;-85
2023/06/02 06:32:06;;;;;;;5.57;2.83;;;;;;;;;;4962692;28;20546;-80
2023/06/02 06:34:33;;;;;;;13.07;3.30;;;;;;;;;;4951377;28;20422;-84
2023/06/02 06:37:00;;;;;;;8.13;3.60;;;;;;;;;;4952719;29;20454;-81
2023/06/02 06:39:37;;;;;;;6.13;2.50;;;;;;;;;;4959078;29;20445;-84
2023/06/02 06:42:07;;;;;;;9.57;3.40;;;;;;;;;;4953622;29;21025;-84
2023/06/02 06:44:45;;;;;;;6.50;3.47;;;;;;;;;;4955995;29;20429;-82
2023/06/02 06:47:12;;;;;;;6.30;2.77;;;;;;;;;;4955384;29;20425;-80
2023/06/02 06:49:41;;;;;;;5.67;3.47;;;;;;;;;;4958398;28;20814;-84
2023/06/02 06:52:09;;;;;;;5.17;3.50;;;;;;;;;;4951649;28;20457;-82
2023/06/02 06:54:36;;;;;;;6.27;3.47;;;;;;;;;;4961101;29;20929;-81
2023/06/02 06:57:08;;;;;;;7.40;4.10;;;;;;;;;;4961719;29;20455;-82
2023/06/02 06:59:42;;;;;;;13.20;5.60;;;;;;;;;;4954358;29;20396;-84
2023/06/02 07:02:13;;;;;;;4.33;3.00;;;;;;;;;;4970434;28;20441;-82
2023/06/02 07:04:43;;;;;;;7.10;3.47;;;;;;;;;;4965500;28;20480;-82
2023/06/02 07:07:13;;;;;;;8.20;5.77;;;;;;;;;;4966130;28;20751;-81
2023/06/02 07:09:47;;;;;;;6.63;3.00;;;;;;;;;;4969674;28;20454;-84
2023/06/02 07:12:14;;;;;;;7.27;3.73;;;;;;;;;;4968219;28;20447;-80
2023/06/02 07:14:42;;;;;;;13.23;4.53;;;;;;;;;;4957935;28;20472;-84
2023/06/02 07:17:09;;;;;;;3.97;3.20;;;;;;;;;;4966884;28;20423;-81
2023/06/02 07:19:37;;;;;;;7.50;4.60;;;;;;;;;;4958697;28;20455;-83
2023/06/02 07:22:05;;;;;;;8.40;3.80;;;;;;;;;;4959199;28;20454;-84
2023/06/02 07:24:32;;;;;;;6.37;3.53;;;;;;;;;;4955665;28;20441;-81
2023/06/02 07:27:00;;;;;;;7.43;2.90;;;;;;;;;;4960479;29;20670;-83
2023/06/02 07:29:27;;;;;;;3.57;3.20;;;;;;;;;;4966393;28;20477;-84
2023/06/02 07:31:57;;;;;;;6.93;2.80;;;;;;;;;;4965377;29;20536;-84
2023/06/02 07:34:36;;;;;;;7.43;3.23;;;;;;;;;;4970983;28;20453;-85
2023/06/02 07:37:05;;;;;;;7.23;3.40;;;;;;;;;;4969663;28;20696;-84
2023/06/02 07:39:32;;;;;;;4.27;3.23;;;;;;;;;;4967894;28;20440;-79
2023/06/02 07:42:03;;;;;;;8.67;3.30;;;;;;;;;;4964750;28;20575;-86
2023/06/02 07:44:30;;;;;;;8.50;3.83;;;;;;;;;;4964390;28;20445;-81
2023/06/02 07:46:58;;;;;;;4.33;3.30;;;;;;;;;;4968002;28;20566;-81
2023/06/02 07:49:26;;;;;;;3.53;2.63;;;;;;;;;;4962494;28;20423;-81
2023/06/02 07:51:54;;;;;;;10.63;3.90;;;;;;;;;;4953392;29;20462;-81
2023/06/02 07:54:21;;;;;;;3.33;2.90;;;;;;;;;;4963605;28;20444;-82
2023/06/02 07:56:50;;;;;;;5.30;3.47;;;;;;;;;;4965720;28;20447;-81
2023/06/02 07:59:18;;;;;;;6.27;3.97;;;;;;;;;;4949488;28;20647;-83
2023/06/02 08:01:49;;;;;;;5.83;3.60;;;;;;;;;;4950206;28;20465;-87
2023/06/02 08:04:17;;;;;;;10.30;5.57;;;;;;;;;;4956042;28;20431;-85
2023/06/02 08:06:44;;;;;;;5.63;3.30;;;;;;;;;;4952038;29;20428;-83
2023/06/02 08:09:12;;;;;;;4.77;3.53;;;;;;;;;;4957491;29;20699;-81
2023/06/02 08:11:39;;;;;;;6.20;3.37;;;;;;;;;;4958098;28;20484;-80
2023/06/02 08:14:07;;;;;;;4.77;3.43;;;;;;;;;;4960303;28;20436;-80
2023/06/02 08:16:34;;;;;;;4.33;3.70;;;;;;;;;;4960596;28;20451;-81
2023/06/02 08:19:25;;;;;;;4.27;2.97;;;;;;;;;;4975630;28;20432;-82
2023/06/02 08:21:53;;;;;;;3.80;3.50;;;;;;;;;;4949323;28;20459;-84
2023/06/02 08:24:24;;;;;;;9.40;3.87;;;;;;;;;;4979183;28;20499;-79
2023/06/02 08:26:55;;;;;;;4.00;2.90;;;;;;;;;;4981790;28;20420;-88
2023/06/02 08:29:26;;;;;;;5.50;2.90;;;;;;;;;;4955818;29;20783;-84
2023/06/02 08:31:59;;;;;;;5.70;3.20;;;;;;;;;;4949752;29;20452;-81
2023/06/02 08:34:27;;;;;;;7.70;3.87;;;;;;;;;;4959754;29;20485;-82
2023/06/02 08:37:00;;;;;;;9.50;3.57;;;;;;;;;;4959529;29;20581;-84
2023/06/02 08:39:30;;;;;;;6.57;4.03;;;;;;;;;;4958973;29;20703;-82
2023/06/02 08:42:01;;;;;;;6.47;3.10;;;;;;;;;;4964987;28;20464;-82
2023/06/02 08:44:29;;;;;;;8.27;3.00;;;;;;;;;;4954648;29;20463;-81
2023/06/02 08:47:00;;;;;;;10.47;3.57;;;;;;;;;;4958760;28;20476;-84
2023/06/02 08:49:28;;;;;;;8.33;4.07;;;;;;;;;;4976325;28;20453;-84
2023/06/02 08:52:05;;;;;;;10.17;5.10;;;;;;;;;;4966001;28;20488;-84
2023/06/02 08:54:37;;;;;;;5.10;3.30;;;;;;;;;;4988092;28;20440;-82
2023/06/02 08:57:05;;;;;;;5.53;2.90;;;;;;;;;;4965583;28;20432;-80
2023/06/02 08:59:33;;;;;;;6.60;2.80;;;;;;;;;;4958403;28;20456;-87
2023/06/02 09:02:01;;;;;;;5.53;3.90;;;;;;;;;;4962212;28;20445;-82
2023/06/02 09:04:29;;;;;;;5.77;3.90;;;;;;;;;;4943351;29;20807;-80
2023/06/02 09:07:12;;;;;;;4.60;3.17;;;;;;;;;;4960080;28;20554;-84
2023/06/02 09:09:41;;;;;;;6.03;3.57;;;;;;;;;;4957970;28;20423;-81
2023/06/02 09:12:10;;;;;;;6.00;3.13;;;;;;;;;;4951393;29;20566;-79
2023/06/02 09:14:40;;;;;;;5.23;3.30;;;;;;;;;;4949206;29;20438;-82
2023/06/02 09:17:31;;;;;;;6.13;3.40;;;;;;;;;;4961583;28;20585;-80
2023/06/02 09:20:11;;;;;;;4.60;3.27;;;;;;;;;;4954846;29;20632;-81
2023/06/02 09:23:01;;;;;;;6.00;3.67;;;;;;;;;;4948448;28;20582;-82
2023/06/02 09:25:35;;;;;;;6.97;3.97;;;;;;;;;;4960603;28;20691;-81
2023/06/02 09:28:02;;;;;;;5.93;4.00;;;;;;;;;;4963136;28;20448;-81
2023/06/02 09:30:31;;;;;;;5.50;3.83;;;;;;;;;;4958289;28;20468;-81
2023/06/02 09:33:00;;;;;;;8.97;4.70;;;;;;;;;;4956986;29;20570;-82
2023/06/02 09:35:44;;;;;;;9.37;4.80;;;;;;;;;;4959077;28;20411;-80
2023/06/02 09:38:15;;;;;;;7.77;4.43;;;;;;;;;;4957054;28;20464;-82
2023/06/02 09:40:51;;;;;;;8.00;4.20;;;;;;;;;;4950626;28;20458;-83
2023/06/02 09:43:28;;;;;;;6.90;4.13;;;;;;;;;;4950681;29;20460;-81
2023/06/02 09:46:00;;;;;;;7.00;4.40;;;;;;;;;;4959518;29;20407;-81
2023/06/02 09:48:31;;;;;;;4.60;3.90;;;;;;;;;;4962493;28;20451;-82
2023/06/02 09:51:01;;;;;;;6.20;3.17;;;;;;;;;;4959686;28;20477;-84
2023/06/02 09:53:29;;;;;;;16.33;6.23;;;;;;;;;;4958724;28;20507;-83
2023/06/02 09:55:57;;;;;;;4.13;3.73;;;;;;;;;;4950543;28;20452;-81
2023/06/02 09:58:25;;;;;;;7.70;4.90;;;;;;;;;;4950453;29;20429;-80
2023/06/02 10:01:01;;;;;;;4.80;4.40;;;;;;;;;;4967109;28;20442;-85
2023/06/02 10:03:29;;;;;;;11.37;5.17;;;;;;;;;;4969695;28;20459;-83
2023/06/02 10:06:12;;;;;;;7.17;4.73;;;;;;;;;;4964502;28;20434;-80
2023/06/02 10:08:48;;;;;;;4.57;3.70;;;;;;;;;;4966589;28;20538;-83
2023/06/02 10:11:39;;;;;;;6.67;3.43;;;;;;;;;;4959217;29;20738;-80
2023/06/02 10:14:13;;;;;;;5.03;4.53;;;;;;;;;;4963854;29;20427;-82
2023/06/02 10:16:40;;;;;;;6.93;4.97;;;;;;;;;;4963807;28;20414;-79
2023/06/02 10:19:27;;;;;;;6.40;3.87;;;;;;;;;;4962242;28;20636;-84
2023/06/02 10:22:17;;;;;;;7.33;3.57;;;;;;;;;;4977525;28;20431;-83
2023/06/02 10:25:03;;;;;;;5.83;4.73;;;;;;;;;;4963690;29;20448;-81
2023/06/02 10:27:41;;;;;;;12.50;4.73;;;;;;;;;;4963273;29;20492;-80
2023/06/02 10:30:10;;;;;;;9.17;4.63;;;;;;;;;;4959609;28;20508;-87
2023/06/02 10:32:48;;;;;;;4.73;3.63;;;;;;;;;;4978828;28;20477;-80
2023/06/02 10:35:22;;;;;;;4.50;3.87;;;;;;;;;;4959909;29;20445;-88
2023/06/02 10:38:09;;;;;;;6.47;3.70;;;;;;;;;;4964781;28;20413;-81
2023/06/02 10:40:55;;;;;;;5.70;3.10;;;;;;;;;;4958950;29;20424;-82
2023/06/02 10:43:27;;;;;;;8.07;3.90;;;;;;;;;;4964024;28;20416;-81
2023/06/02 10:46:15;;;;;;;4.13;3.70;;;;;;;;;;4964837;29;20534;-81
2023/06/02 10:48:57;;;;;;;;;;;;;;;;;;;;;
2023/06/02 10:51:26;;;;;;;8.33;3.17;;;;;;;;;;4951228;28;20407;-83
2023/06/02 10:54:06;;;;;;;4.00;3.03;;;;;;;;;;4955373;29;20491;-84
2023/06/02 10:56:45;;;;;;;10.47;5.03;;;;;;;;;;4964080;28;20797;-80
2023/06/02 10:59:31;;;;;;;8.43;2.93;;;;;;;;;;4960082;28;20483;-84
2023/06/02 11:01:59;;;;;;;6.07;3.93;;;;;;;;;;4967944;28;20512;-83
2023/06/02 11:04:50;;;;;;;12.77;3.13;;;;;;;;;;4964204;28;20690;-83
2023/06/02 11:07:21;;;;;;;7.80;3.63;;;;;;;;;;4958786;29;20443;-84
2023/06/02 11:09:52;;;;;;;5.23;3.47;;;;;;;;;;4964100;28;20457;-84
2023/06/02 11:12:45;;;;;;;4.67;4.07;;;;;;;;;;4965880;28;20532;-84
2023/06/02 11:15:24;;;;;;;6.03;3.17;;;;;;;;;;4968964;28;20448;-84
2023/06/02 11:17:51;;;;;;;7.13;4.30;;;;;;;;;;4970716;28;20447;-82
2023/06/02 11:20:32;;;;;;;4.27;2.83;;;;;;;;;;4982121;28;20445;-85
2023/06/02 11:23:10;;;;;;;7.27;3.43;;;;;;;;;;4966955;28;20443;-86
2023/06/02 11:25:40;;;;;;;4.80;3.40;;;;;;;;;;4963044;29;20785;-82
2023/06/02 11:28:23;;;;;;;9.90;3.90;;;;;;;;;;4962254;29;20505;-85
2023/06/02 11:31:07;;;;;;;4.13;3.73;;;;;;;;;;4971561;28;20409;-85
2023/06/02 11:33:39;;;;;;;4.20;3.50;;;;;;;;;;4955861;29;20500;-82
2023/06/02 11:36:10;;;;;;;9.10;3.60;;;;;;;;;;4976366;28;20480;-85
2023/06/02 11:38:40;;;;;;;4.23;3.50;;;;;;;;;;4962108;29;20431;-86
2023/06/02 11:41:15;;;;;;;4.60;3.77;;;;;;;;;;4954254;29;20757;-83
2023/06/02 11:43:44;;;;;;;15.73;3.37;;;;;;;;;;4960619;28;20802;-85
2023/06/02 11:46:20;;;;;;;6.20;4.10;;;;;;;;;;4957621;28;21057;-86
2023/06/02 11:48:51;;;;;;;4.60;3.80;;;;;;;;;;4960364;29;20548;-84
2023/06/02 11:51:19;;;;;;;3.47;3.13;;;;;;;;;;4964092;28;20445;-83
2023/06/02 11:54:00;;;;;;;6.30;3.90;;;;;;;;;;4960250;29;20475;-82
2023/06/02 11:56:30;;;;;;;5.83;3.80;;;;;;;;;;4948242;29;20587;-83
2023/06/02 11:58:58;;;;;;;3.90;3.40;;;;;;;;;;4955421;29;20842;-82
2023/06/02 12:01:32;;;;;;;5.90;3.40;;;;;;;;;;4969487;28;20432;-83
2023/06/02 12:04:04;;;;;;;4.30;3.57;;;;;;;;;;4956250;29;20677;-82
2023/06/02 12:06:48;;;;;;;4.70;4.23;;;;;;;;;;4964037;28;20441;-81
2023/06/02 12:09:29;;;;;;;4.47;3.33;;;;;;;;;;4962621;29;20672;-85
2023/06/02 12:12:07;;;;;;;7.50;4.33;;;;;;;;;;4964219;28;20453;-84
2023/06/02 12:14:40;;;;;;;7.60;4.30;;;;;;;;;;4961131;29;20519;-87
2023/06/02 12:17:10;;;;;;;5.33;3.50;;;;;;;;;;4978529;28;20521;-84
2023/06/02 12:19:41;;;;;;;7.13;3.90;;;;;;;;;;4952831;29;20526;-86
2023/06/02 12:22:18;;;;;;;9.20;4.43;;;;;;;;;;4955965;29;20491;-81
2023/06/02 12:24:45;;;;;;;5.20;3.57;;;;;;;;;;4961314;29;20848;-83
2023/06/02 12:27:21;;;;;;;9.93;5.47;;;;;;;;;;4958193;29;20448;-83
2023/06/02 12:29:53;;;;;;;8.67;4.47;;;;;;;;;;4956740;29;20422;-87
2023/06/02 12:32:27;;;;;;;10.30;4.20;;;;;;;;;;4953470;28;20421;-85
2023/06/02 12:35:00;;;;;;;5.17;4.60;;;;;;;;;;4964501;28;20431;-83
2023/06/02 12:37:57;;;;;;;5.67;4.20;;;;;;;;;;4956786;29;20462;-84
2023/06/02 12:40:26;;;;;;;4.23;3.63;;;;;;;;;;4959857;28;20511;-81
2023/06/02 12:42:53;;;;;;;4.07;3.47;;;;;;;;;;4963458;28;20812;-84
2023/06/02 12:45:23;;;;;;;4.57;3.73;;;;;;;;;;4964822;28;20417;-81
2023/06/02 12:47:54;;;;;;;4.80;3.57;;;;;;;;;;4963166;29;20463;-84
2023/06/02 12:50:22;;;;;;;7.00;3.87;;;;;;;;;;4955246;28;20445;-80
2023/06/02 12:52:51;;;;;;;9.23;3.57;;;;;;;;;;4957994;29;20473;-84
2023/06/02 12:55:21;;;;;;;4.40;3.07;;;;;;;;;;4951470;28;20450;-86
2023/06/02 12:57:50;;;;;;;3.73;3.40;;;;;;;;;;4956747;28;20461;-82
2023/06/02 13:00:17;;;;;;;3.77;2.90;;;;;;;;;;4964136;28;20444;-83
2023/06/02 13:02:46;;;;;;;3.37;2.80;;;;;;;;;;4954614;28;20431;-81
2023/06/02 13:05:14;;;;;;;6.50;3.63;;;;;;;;;;4959055;28;20466;-85
2023/06/02 13:07:42;;;;;;;6.37;3.83;;;;;;;;;;4957716;28;20419;-82
2023/06/02 13:10:10;;;;;;;4.13;3.17;;;;;;;;;;4952281;29;20754;-81
2023/06/02 13:12:38;;;;;;;3.50;3.20;;;;;;;;;;4958139;29;20436;-82
2023/06/02 13:15:10;;;;;;;4.03;3.37;;;;;;;;;;4954511;28;20500;-85
2023/06/02 13:17:39;;;;;;;5.00;4.40;;;;;;;;;;4968806;28;20427;-81
2023/06/02 13:20:10;;;;;;;8.97;4.63;;;;;;;;;;4952518;29;20415;-84
2023/06/02 13:22:41;;;;;;;9.70;6.20;;;;;;;;;;4960072;28;20508;-84
2023/06/02 13:25:09;;;;;;;6.07;3.20;;;;;;;;;;4954922;28;20447;-84
2023/06/02 13:27:37;;;;;;;4.13;3.50;;;;;;;;;;4955695;29;20486;-82
2023/06/02 13:30:09;;;;;;;3.63;3.17;;;;;;;;;;4952493;29;20445;-85
2023/06/02 13:32:40;;;;;;;7.67;4.47;;;;;;;;;;4966242;28;20537;-86
2023/06/02 13:35:08;;;;;;;9.50;5.07;;;;;;;;;;4957631;29;20488;-85
2023/06/02 13:37:40;;;;;;;6.57;4.40;;;;;;;;;;4953976;28;20436;-84
2023/06/02 13:40:31;;;;;;;5.00;4.33;;;;;;;;;;4955554;28;20402;-83
2023/06/02 13:43:13;;;;;;;7.70;4.60;;;;;;;;;;4954492;29;20424;-85
2023/06/02 13:45:45;;;;;;;5.70;3.83;;;;;;;;;;4958893;28;20448;-85
2023/06/02 13:48:12;;;;;;;6.60;4.57;;;;;;;;;;4961724;28;20460;-86
2023/06/02 13:50:54;;;;;;;5.30;4.03;;;;;;;;;;4961624;29;20449;-85
2023/06/02 13:53:22;;;;;;;6.00;3.67;;;;;;;;;;4957968;28;20504;-85
2023/06/02 13:55:49;;;;;;;8.80;4.10;;;;;;;;;;4942943;29;20492;-86
2023/06/02 13:58:17;;;;;;;3.93;3.53;;;;;;;;;;4959535;29;20463;-82
2023/06/02 14:00:54;;;;;;;;;;;;;;;;;;;;;
2023/06/02 14:03:25;;;;;;;3.67;3.37;;;;;;;;;;4956021;28;20476;-87
2023/06/02 14:05:58;;;;;;;4.30;3.90;;;;;;;;;;4945745;29;20771;-87
2023/06/02 14:08:32;;;;;;;7.33;4.50;;;;;;;;;;4962116;29;20521;-82
2023/06/02 14:11:01;;;;;;;5.77;2.77;;;;;;;;;;4963507;29;20624;-86
2023/06/02 14:13:31;;;;;;;5.37;3.90;;;;;;;;;;4962630;28;20552;-83
2023/06/02 14:16:01;;;;;;;2.60;2.40;;;;;;;;;;4959311;29;20428;-82
2023/06/02 14:18:31;;;;;;;2.70;2.47;;;;;;;;;;4949240;28;20423;-81
2023/06/02 14:21:02;;;;;;;2.90;2.03;;;;;;;;;;4969265;29;20444;-81
2023/06/02 14:23:34;;;;;;;2.73;2.53;;;;;;;;;;4956463;29;20508;-87
2023/06/02 14:26:04;;;;;;;3.03;2.43;;;;;;;;;;4976189;28;20435;-88
2023/06/02 14:28:32;;;;;;;8.60;2.63;;;;;;;;;;4955529;28;20499;-86
2023/06/02 14:31:00;;;;;;;6.40;2.53;;;;;;;;;;4952908;28;20452;-82
2023/06/02 14:33:40;;;;;;;6.70;2.60;;;;;;;;;;4945707;28;20524;-83
2023/06/02 14:36:11;;;;;;;3.03;2.10;;;;;;;;;;4956732;29;20784;-82
2023/06/02 14:38:39;;;;;;;2.77;2.23;;;;;;;;;;4959053;28;20479;-85
2023/06/02 14:41:13;;;;;;;2.70;2.00;;;;;;;;;;4958228;28;20727;-86
2023/06/02 14:43:47;;;;;;;3.33;2.17;;;;;;;;;;4948311;29;20445;-82
2023/06/02 14:46:15;;;;;;;2.40;2.20;;;;;;;;;;4963006;28;20475;-82
2023/06/02 14:48:48;;;;;;;3.43;2.97;;;;;;;;;;4955253;28;20488;-82
2023/06/02 14:51:18;;;;;;;3.20;2.20;;;;;;;;;;4965540;28;20441;-86
2023/06/02 14:54:00;;;;;;;10.37;3.40;;;;;;;;;;4967464;28;20451;-86
2023/06/02 14:56:28;;;;;;;2.50;1.73;;;;;;;;;;4990151;28;20439;-83
2023/06/02 14:58:58;;;;;;;2.50;1.80;;;;;;;;;;4965121;29;20545;-84
2023/06/02 15:01:39;;;;;;;2.43;2.20;;;;;;;;;;4960496;29;20445;-82
2023/06/02 15:04:08;;;;;;;3.40;2.03;;;;;;;;;;4962908;29;20432;-85
2023/06/02 15:06:38;;;;;;;3.23;2.10;;;;;;;;;;4968876;29;20419;-84
2023/06/02 15:09:06;;;;;;;3.33;2.00;;;;;;;;;;4958974;29;20476;-82